Amman, Jordan

10:31 PM EET on February 14, 2016 (GMT +0200)
Mars Mount | | Change Station
CLOSE
Current Station
Personal Weather Station
Location: Amman, MARIKH
Elevation: 2953 ft
Nearby Weather Stations

Elev 2953 ft 31.93 °N, 35.92 °E | Updated 43 seconds ago

Clear
Clear
57.4 °F
Feels Like 57.4 °F
N
4.5
Wind Variable Wind from NE
Gusts 7.6 mph

Today
High -- | Low -- °F
--% Chance of Precip.
Yesterday
High -- | Low -- °F
Precip. -- in
Pressure 30.21 in
Visibility 3.7 miles
Clouds
Dew Point 38 °F
Humidity 49%
Rainfall 0.00 in
Snow Depth Not available.
6:19 AM 5:21 PM
Waxing Crescent, 45% visible
METAR OJAM 142000Z 00000KT 6000 NSC 13/05 Q1023 NOSIG
Pressure 30.21 in
Visibility 3.7 miles
Clouds
Dew Point 38 °F
Humidity 49%
Rainfall 0.00 in
Snow Depth Not available.
6:19 AM 5:21 PM
Waxing Crescent, 45% visible
METAR OJAM 142000Z 00000KT 6000 NSC 13/05 Q1023 NOSIG

10-Day Weather Forecast

No radar image for this location.
×

Almanac

Astronomy

Feb. 14, 2016 Rise Set
Actual Time
Civil Twilight
Nautical Twilight
Astronomical Twilight
Moon
Length of Visible Light
Length of Day
Tomorrow will be .
, % of the Moon is Illuminated

Today's Extremes

Country Highs Country Lows

Community

WunderPhotos

Upload Photos

1,892,886 photos uploaded!

WunderBlog® & News

Nearby

Air Quality

  Air Quality AQ Index Pollutant
Not available.

Snow Depth

Station Depth Elevation

Earthquake Activity

City Distance Mag. Time & Date
Minimum magnitude displayed is 2.5.

Coastal Water Temperatures

Place Temperature

Stations

Nearby Weather Stations

Station Location Temp. Windchill Dew Point Humidity Wind Precip. Elev Updated Type